Swift Arrow — WAFK — position and weather

sailwx.info

Track history (hours):
 
Tides and Currents Weather Stations Pressure Air Temp Water Temp Dewpoint Dewpoint Depression Visibility Wind Speed Wind Dir Waves Ship Positions

Swift Arrow

Owner: ARROW LAUNCH SERVICE INC, Port Angeles, WA. More information available from US FCC via Universal Licensing System and Coast Guard Vessel Documentation Center.

Last reported at 2016-May-25 11:28 UTC. Time now 2016-May-27 08:32 UTC.
Position N 47°34' W 122°21'.

Type: Port tender. MMSI: 369021000.

Date/timePositionNaut miles runAvg speedWind from/ knotsBaromVisibWave heightAir tempDewpointWater temp
2016-May-25 11:28N 47°34' W 122°21'2 1.8
2016-May-25 10:33N 47°36' W 122°22'1 1.5
2016-May-25 09:33N 47°34' W 122°21'0 0.0
2016-May-25 02:30N 47°34' W 122°21'9 9.6
2016-May-25 01:33N 47°42' W 122°28'1515.5
2016-May-25 00:33N 47°57' W 122°21'3012.0
2016-May-24 22:05N 48°26' W 122°30'612.2
2016-May-24 21:33N 48°31' W 122°36'2 1.7
2016-May-24 20:33N 48°32' W 122°34'2 1.7
2016-May-24 19:33N 48°31' W 122°36'3 3.4
2016-May-24 18:33N 48°34' W 122°35'3 3.5
2016-May-24 17:33N 48°31' W 122°36'5 4.8
2016-May-24 16:33N 48°35' W 122°34'5 4.7
2016-May-24 15:33N 48°31' W 122°36'0 0.2
2016-May-24 14:34N 48°31' W 122°36'0 0.2
2016-May-24 13:33N 48°31' W 122°36'0 0.0
2016-May-24 12:33N 48°31' W 122°36'1 1.5
2016-May-24 11:34N 48°31' W 122°35'1 0.2
2016-May-24 06:33N 48°31' W 122°34'2 1.6
2016-May-24 05:33N 48°31' W 122°37'0 0.0
2016-May-24 04:33N 48°31' W 122°36'0 0.0
2016-May-24 03:33N 48°31' W 122°36'0 0.2
2016-May-24 02:33N 48°31' W 122°36'6 5.9
2016-May-24 01:33N 48°36' W 122°33'6 6.1
2016-May-24 00:33N 48°31' W 122°36'3 3.1
2016-May-23 23:33N 48°33' W 122°34'3 3.1
2016-May-23 22:33N 48°31' W 122°36'0 0.0
2016-May-23 20:28N 48°31' W 122°36'0 0.1
2016-May-23 19:33N 48°31' W 122°36'0 0.0
2016-May-23 15:33N 48°31' W 122°36'0 0.1
2016-May-23 14:33N 48°31' W 122°36'0 0.3
2016-May-23 13:33N 48°31' W 122°36'0 0.0
2016-May-23 12:33N 48°31' W 122°36'1 0.9
2016-May-23 11:34N 48°31' W 122°35'1 0.9
2016-May-23 10:33N 48°31' W 122°36'0 0.0
2016-May-23 04:26N 48°31' W 122°36'0 0.0
2016-May-23 03:33N 48°31' W 122°36'0 0.1
2016-May-23 02:34N 48°31' W 122°36'6 5.8
2016-May-23 01:33N 48°36' W 122°33'6 5.9
2016-May-23 00:33N 48°31' W 122°37'0 0.3
2016-May-22 23:33N 48°31' W 122°36'6 5.9
2016-May-22 22:33N 48°36' W 122°34'6 5.9
2016-May-22 21:33N 48°31' W 122°36'0 0.2
2016-May-22 20:33N 48°31' W 122°36'7 6.8
2016-May-22 19:33N 48°37' W 122°33'7 7.0
2016-May-22 18:33N 48°31' W 122°36'6 5.5
2016-May-22 17:33N 48°36' W 122°34'6 5.7
2016-May-22 16:33N 48°31' W 122°36'0 0.0
2016-May-22 06:24N 48°31' W 122°36'1 1.0
2016-May-22 05:33N 48°31' W 122°35'1 0.8
2016-May-22 04:33N 48°31' W 122°36'0 0.0
2016-May-22 03:33N 48°31' W 122°36'0 0.0
2016-May-22 02:33N 48°31' W 122°36'0 0.0
2016-May-22 01:33N 48°31' W 122°36'0 0.0
2016-May-22 00:33N 48°31' W 122°36'0 0.0
2016-May-21 23:33N 48°31' W 122°36'0 0.0
2016-May-21 22:33N 48°31' W 122°36'0 0.0
2016-May-21 21:33N 48°31' W 122°36'0 0.0
2016-May-21 20:33N 48°31' W 122°36'0 0.0
2016-May-21 19:33N 48°31' W 122°36'0 0.0
2016-May-21 18:33N 48°31' W 122°36'1 0.3
2016-May-21 15:34N 48°31' W 122°35'1 0.9
2016-May-21 14:33N 48°31' W 122°36'0 0.0
2016-May-21 06:33N 48°31' W 122°36'0 0.2
2016-May-21 05:33N 48°31' W 122°36'0 0.0
2016-May-21 04:34N 48°31' W 122°36'0 0.0
2016-May-21 03:34N 48°31' W 122°36'0 0.1
2016-May-21 02:33N 48°31' W 122°36'1 1.1
2016-May-21 01:33N 48°31' W 122°35'1 1.2
2016-May-21 00:33N 48°31' W 122°36'0 0.2
2016-May-20 23:33N 48°31' W 122°36'0 0.2
2016-May-20 22:34N 48°31' W 122°36'0 0.0
2016-May-20 21:33N 48°31' W 122°36'4 4.0
2016-May-20 20:33N 48°34' W 122°34'4 4.0
2016-May-20 19:33N 48°31' W 122°36'0 0.2
2016-May-20 18:33N 48°31' W 122°36'0 0.2
2016-May-20 17:33N 48°31' W 122°36'0 0.0
2016-May-20 02:33N 48°31' W 122°36'0 0.1
2016-May-20 01:34N 48°31' W 122°36'1 0.2
2016-May-19 20:33N 48°31' W 122°37'2114.9
2016-May-19 19:11N 48°18' W 123°01'914.6
2016-May-19 18:33N 48°12' W 123°12'11 0.4
2016-May-18 17:17N 48°08' W 123°27'0 0.0
2016-May-17 22:33N 48°08' W 123°27'0 0.0
2016-May-17 19:12N 48°08' W 123°27'2 3.7
2016-May-17 18:34N 48°08' W 123°23'2 0.1
2016-May-16 18:12N 48°08' W 123°27'1 1.7
2016-May-16 17:33N 48°08' W 123°25'1 0.1
2016-May-15 23:19N 48°08' W 123°27'0 0.0
2016-May-15 19:16N 48°08' W 123°27'0 0.0
2016-May-15 15:22N 48°08' W 123°27'  
Track history (hours):
 
Tides and Currents Weather Stations Pressure Air Temp Water Temp Dewpoint Dewpoint Depression Visibility Wind Speed Wind Dir Waves Ship Positions

Swift Arrow

Owner: ARROW LAUNCH SERVICE INC, Port Angeles, WA. More information available from US FCC via Universal Licensing System and Coast Guard Vessel Documentation Center.

Last reported at 2016-May-25 11:28 UTC. Time now 2016-May-27 08:32 UTC.
Position N 47°34' W 122°21'.

Type: Port tender. MMSI: 369021000.

Date/timePositionNaut miles runAvg speedWind from/ knotsBaromVisibWave heightAir tempDewpointWater temp
2016-May-25 11:28N 47°34' W 122°21'2 1.8
2016-May-25 10:33N 47°36' W 122°22'1 1.5
2016-May-25 09:33N 47°34' W 122°21'0 0.0
2016-May-25 02:30N 47°34' W 122°21'9 9.6
2016-May-25 01:33N 47°42' W 122°28'1515.5
2016-May-25 00:33N 47°57' W 122°21'3012.0
2016-May-24 22:05N 48°26' W 122°30'612.2
2016-May-24 21:33N 48°31' W 122°36'2 1.7
2016-May-24 20:33N 48°32' W 122°34'2 1.7
2016-May-24 19:33N 48°31' W 122°36'3 3.4
2016-May-24 18:33N 48°34' W 122°35'3 3.5
2016-May-24 17:33N 48°31' W 122°36'5 4.8
2016-May-24 16:33N 48°35' W 122°34'5 4.7
2016-May-24 15:33N 48°31' W 122°36'0 0.2
2016-May-24 14:34N 48°31' W 122°36'0 0.2
2016-May-24 13:33N 48°31' W 122°36'0 0.0
2016-May-24 12:33N 48°31' W 122°36'1 1.5
2016-May-24 11:34N 48°31' W 122°35'1 0.2
2016-May-24 06:33N 48°31' W 122°34'2 1.6
2016-May-24 05:33N 48°31' W 122°37'0 0.0
2016-May-24 04:33N 48°31' W 122°36'0 0.0
2016-May-24 03:33N 48°31' W 122°36'0 0.2
2016-May-24 02:33N 48°31' W 122°36'6 5.9
2016-May-24 01:33N 48°36' W 122°33'6 6.1
2016-May-24 00:33N 48°31' W 122°36'3 3.1
2016-May-23 23:33N 48°33' W 122°34'3 3.1
2016-May-23 22:33N 48°31' W 122°36'0 0.0
2016-May-23 20:28N 48°31' W 122°36'0 0.1
2016-May-23 19:33N 48°31' W 122°36'0 0.0
2016-May-23 15:33N 48°31' W 122°36'0 0.1
2016-May-23 14:33N 48°31' W 122°36'0 0.3
2016-May-23 13:33N 48°31' W 122°36'0 0.0
2016-May-23 12:33N 48°31' W 122°36'1 0.9
2016-May-23 11:34N 48°31' W 122°35'1 0.9
2016-May-23 10:33N 48°31' W 122°36'0 0.0
2016-May-23 04:26N 48°31' W 122°36'0 0.0
2016-May-23 03:33N 48°31' W 122°36'0 0.1
2016-May-23 02:34N 48°31' W 122°36'6 5.8
2016-May-23 01:33N 48°36' W 122°33'6 5.9
2016-May-23 00:33N 48°31' W 122°37'0 0.3
2016-May-22 23:33N 48°31' W 122°36'6 5.9
2016-May-22 22:33N 48°36' W 122°34'6 5.9
2016-May-22 21:33N 48°31' W 122°36'0 0.2
2016-May-22 20:33N 48°31' W 122°36'7 6.8
2016-May-22 19:33N 48°37' W 122°33'7 7.0
2016-May-22 18:33N 48°31' W 122°36'6 5.5
2016-May-22 17:33N 48°36' W 122°34'6 5.7
2016-May-22 16:33N 48°31' W 122°36'0 0.0
2016-May-22 06:24N 48°31' W 122°36'1 1.0
2016-May-22 05:33N 48°31' W 122°35'1 0.8
2016-May-22 04:33N 48°31' W 122°36'0 0.0
2016-May-22 03:33N 48°31' W 122°36'0 0.0
2016-May-22 02:33N 48°31' W 122°36'0 0.0
2016-May-22 01:33N 48°31' W 122°36'0 0.0
2016-May-22 00:33N 48°31' W 122°36'0 0.0
2016-May-21 23:33N 48°31' W 122°36'0 0.0
2016-May-21 22:33N 48°31' W 122°36'0 0.0
2016-May-21 21:33N 48°31' W 122°36'0 0.0
2016-May-21 20:33N 48°31' W 122°36'0 0.0
2016-May-21 19:33N 48°31' W 122°36'0 0.0
2016-May-21 18:33N 48°31' W 122°36'1 0.3
2016-May-21 15:34N 48°31' W 122°35'1 0.9
2016-May-21 14:33N 48°31' W 122°36'0 0.0
2016-May-21 06:33N 48°31' W 122°36'0 0.2
2016-May-21 05:33N 48°31' W 122°36'0 0.0
2016-May-21 04:34N 48°31' W 122°36'0 0.0
2016-May-21 03:34N 48°31' W 122°36'0 0.1
2016-May-21 02:33N 48°31' W 122°36'1 1.1
2016-May-21 01:33N 48°31' W 122°35'1 1.2
2016-May-21 00:33N 48°31' W 122°36'0 0.2
2016-May-20 23:33N 48°31' W 122°36'0 0.2
2016-May-20 22:34N 48°31' W 122°36'0 0.0
2016-May-20 21:33N 48°31' W 122°36'4 4.0
2016-May-20 20:33N 48°34' W 122°34'4 4.0
2016-May-20 19:33N 48°31' W 122°36'0 0.2
2016-May-20 18:33N 48°31' W 122°36'0 0.2
2016-May-20 17:33N 48°31' W 122°36'0 0.0
2016-May-20 02:33N 48°31' W 122°36'0 0.1
2016-May-20 01:34N 48°31' W 122°36'1 0.2
2016-May-19 20:33N 48°31' W 122°37'2114.9
2016-May-19 19:11N 48°18' W 123°01'914.6
2016-May-19 18:33N 48°12' W 123°12'11 0.4
2016-May-18 17:17N 48°08' W 123°27'0 0.0
2016-May-17 22:33N 48°08' W 123°27'0 0.0
2016-May-17 19:12N 48°08' W 123°27'2 3.7
2016-May-17 18:34N 48°08' W 123°23'2 0.1
2016-May-16 18:12N 48°08' W 123°27'1 1.7
2016-May-16 17:33N 48°08' W 123°25'1 0.1
2016-May-15 23:19N 48°08' W 123°27'0 0.0
2016-May-15 19:16N 48°08' W 123°27'0 0.0
2016-May-15 15:22N 48°08' W 123°27'  

Dump ship's entire track history